Terminal Aerodrome Forecast
Issued by NWS

Home | Current Version | Previous Version | Graphics & Text | Print | Product List | Glossary On
Versions: 1 2 3 4 5 6 7 8 9 10 11 12 13 14 15 16 17 18
000
FTUS43 KICT 031135
TAFHUT
TAF
KHUT 031135Z 0312/0412 VRB06KT P6SM FEW120
      TEMPO 0313/0317 SCT006 BKN017
     FM031700 36010KT P6SM SCT040
     FM040100 09006KT P6SM FEW015=

USA.gov is the U.S. government's official web portal to all federal, state and local government web resources and services.